createdAt,value
2023-04-15T00:01:19.841Z,99672.66
2023-04-15T00:03:50.867Z,99670.16
2023-04-15T00:06:22.657Z,99668.34
2023-04-15T00:08:51.704Z,99667.66
2023-04-15T00:11:20.387Z,99666.66
2023-04-15T00:13:49.581Z,99665.84
2023-04-15T00:16:18.059Z,99658.00
2023-04-15T00:18:47.158Z,99656.22
2023-04-15T00:21:15.556Z,99650.03
2023-04-15T00:23:44.381Z,99647.41
2023-04-15T00:26:12.882Z,99647.56
2023-04-15T00:28:43.853Z,99648.53
2023-04-15T00:31:12.304Z,99650.22
2023-04-15T00:33:42.429Z,99646.69
2023-04-15T00:36:11.486Z,99652.69
2023-04-15T00:38:40.270Z,99652.88
2023-04-15T00:41:09.252Z,99639.06
2023-04-15T00:43:38.465Z,99654.84
2023-04-15T00:46:06.889Z,99647.84
2023-04-15T00:48:35.954Z,99647.69
2023-04-15T00:51:04.685Z,99651.31
2023-04-15T00:53:33.584Z,99644.22
2023-04-15T00:56:02.004Z,99640.72
2023-04-15T00:58:30.827Z,99646.00
2023-04-15T01:00:59.485Z,99642.53
2023-04-15T01:03:29.216Z,99644.22
2023-04-15T01:06:02.216Z,99641.69
2023-04-15T01:08:32.650Z,99641.69
2023-04-15T01:11:03.833Z,99634.72
2023-04-15T01:13:34.266Z,99640.84
2023-04-15T01:16:03.331Z,99640.84
2023-04-15T01:18:32.351Z,99639.19
2023-04-15T01:21:05.044Z,99642.66
2023-04-15T01:23:37.129Z,99644.50
2023-04-15T01:26:08.144Z,99651.47
2023-04-15T01:28:37.913Z,99647.97
2023-04-15T01:31:11.071Z,99645.47
2023-04-15T01:33:42.481Z,99640.31
2023-04-15T01:36:11.093Z,99645.47
2023-04-15T01:38:40.033Z,99642.81
2023-04-15T01:41:08.802Z,99643.66
2023-04-15T01:43:38.131Z,99641.97
2023-04-15T01:46:07.517Z,99641.97
2023-04-15T01:48:36.226Z,99646.31
2023-04-15T01:51:05.931Z,99648.28
2023-04-15T01:53:34.933Z,99645.63
2023-04-15T01:56:04.791Z,99640.31
2023-04-15T01:58:33.768Z,99635.84
2023-04-15T02:01:03.225Z,99641.16
2023-04-15T02:03:34.166Z,99637.81
2023-04-15T02:06:02.720Z,99642.13
2023-04-15T02:08:31.490Z,99637.81
2023-04-15T02:11:01.616Z,99644.25
2023-04-15T02:13:30.647Z,99637.81
2023-04-15T02:15:59.984Z,99643.13
2023-04-15T02:18:28.733Z,99641.44
2023-04-15T02:20:58.965Z,99646.72
2023-04-15T02:23:27.882Z,99647.59
2023-04-15T02:25:56.387Z,99645.91
2023-04-15T02:28:25.099Z,99636.28
2023-04-15T02:30:54.874Z,99644.25
2023-04-15T02:33:25.544Z,99647.88
2023-04-15T02:35:54.127Z,99655.00
2023-04-15T02:38:22.861Z,99647.88
2023-04-15T02:40:51.335Z,99651.47
2023-04-15T02:43:20.072Z,99657.66
2023-04-15T02:45:48.841Z,99656.78
2023-04-15T02:48:19.681Z,99649.81
2023-04-15T02:50:48.292Z,99649.81
2023-04-15T02:53:20.204Z,99650.66
2023-04-15T02:55:48.822Z,99656.78
2023-04-15T02:58:17.738Z,99658.75
2023-04-15T03:00:46.150Z,99661.28
2023-04-15T03:03:15.644Z,99667.56
2023-04-15T03:05:45.315Z,99661.41
2023-04-15T03:08:15.464Z,99658.75
2023-04-15T03:10:43.939Z,99655.41
2023-04-15T03:13:12.665Z,99667.72
2023-04-15T03:15:42.292Z,99665.19
2023-04-15T03:18:11.717Z,99668.66
2023-04-15T03:20:42.218Z,99671.31
2023-04-15T03:23:11.389Z,99669.66
2023-04-15T03:25:40.855Z,99675.78
2023-04-15T03:28:09.816Z,99673.97
2023-04-15T03:30:38.301Z,99676.78
2023-04-15T03:33:07.390Z,99677.63
2023-04-15T03:35:36.110Z,99677.75
2023-04-15T03:38:04.982Z,99679.44
2023-04-15T03:40:33.437Z,99675.25
2023-04-15T03:43:02.500Z,99681.41
2023-04-15T03:45:31.157Z,99683.06
2023-04-15T03:48:15.595Z,99676.09
2023-04-15T03:50:46.514Z,99681.41
2023-04-15T03:53:16.186Z,99675.53
2023-04-15T03:55:44.988Z,99672.59
2023-04-15T03:58:14.869Z,99680.53
2023-04-15T04:00:43.340Z,99676.94
2023-04-15T04:03:12.896Z,99688.50
2023-04-15T04:05:41.787Z,99681.53
2023-04-15T04:08:11.589Z,99681.69
2023-04-15T04:10:40.498Z,99690.59
2023-04-15T04:13:09.260Z,99679.84
2023-04-15T04:15:37.826Z,99688.81
2023-04-15T04:18:06.791Z,99681.81
2023-04-15T04:20:35.359Z,99683.63
2023-04-15T04:23:04.183Z,99685.28
2023-04-15T04:25:33.503Z,99683.63
2023-04-15T04:28:02.312Z,99694.25
2023-04-15T04:30:30.640Z,99693.25
2023-04-15T04:32:59.504Z,99689.78
2023-04-15T04:35:28.090Z,99698.84
2023-04-15T04:37:56.824Z,99696.91
2023-04-15T04:40:25.122Z,99692.56
2023-04-15T04:42:54.546Z,99696.06
2023-04-15T04:45:22.974Z,99697.03
2023-04-15T04:47:52.168Z,99697.88
2023-04-15T04:50:20.628Z,99694.38
2023-04-15T04:52:49.363Z,99702.47
2023-04-15T04:55:18.091Z,99710.28
2023-04-15T04:57:47.606Z,99702.47
2023-04-15T05:00:16.189Z,99711.28
2023-04-15T05:02:45.321Z,99718.25
2023-04-15T05:05:13.735Z,99720.06
2023-04-15T05:07:42.682Z,99725.38
2023-04-15T05:10:11.605Z,99727.19
2023-04-15T05:12:40.530Z,99736.81
2023-04-15T05:15:09.712Z,99736.00
2023-04-15T05:17:38.861Z,99741.16
2023-04-15T05:20:08.358Z,99735.00
2023-04-15T05:22:37.426Z,99741.16
2023-04-15T05:25:06.409Z,99740.16
2023-04-15T05:27:35.291Z,99740.16
2023-04-15T05:30:03.761Z,99748.13
2023-04-15T05:32:32.645Z,99739.47
2023-04-15T05:35:01.261Z,99739.47
2023-04-15T05:37:30.087Z,99748.13
2023-04-15T05:39:58.373Z,99751.59
2023-04-15T05:42:27.407Z,99755.13
2023-04-15T05:44:55.868Z,99758.72
2023-04-15T05:47:24.695Z,99764.03
2023-04-15T05:49:53.076Z,99764.88
2023-04-15T05:52:21.777Z,99760.44
2023-04-15T05:54:50.095Z,99773.81
2023-04-15T05:57:18.867Z,99769.91
2023-04-15T05:59:47.157Z,99770.88
2023-04-15T06:02:16.736Z,99763.78
2023-04-15T06:04:45.262Z,99769.91
2023-04-15T06:07:14.119Z,99765.28
2023-04-15T06:09:42.457Z,99772.28
2023-04-15T06:12:12.616Z,99760.00
2023-04-15T06:14:41.217Z,99761.69
2023-04-15T06:17:10.043Z,99757.22
2023-04-15T06:19:38.428Z,99756.22
2023-04-15T06:22:07.438Z,99759.84
2023-04-15T06:24:37.447Z,99751.06
2023-04-15T06:27:06.616Z,99749.25
2023-04-15T06:29:34.990Z,99755.50
2023-04-15T06:32:03.785Z,99751.91
2023-04-15T06:34:32.152Z,99755.38
2023-04-15T06:37:02.356Z,99757.06
2023-04-15T06:39:32.005Z,99756.22
2023-04-15T06:42:01.645Z,99765.03
2023-04-15T06:44:33.300Z,99760.56
2023-04-15T06:47:02.774Z,99755.25
2023-04-15T06:49:31.100Z,99757.75
2023-04-15T06:52:00.968Z,99761.94
2023-04-15T06:54:29.286Z,99760.69
2023-04-15T06:56:58.026Z,99764.31
2023-04-15T06:59:27.644Z,99766.69
2023-04-15T07:01:56.383Z,99768.22
2023-04-15T07:04:24.840Z,99762.06
2023-04-15T07:06:55.952Z,99761.25
2023-04-15T07:09:24.964Z,99769.06
2023-04-15T07:11:53.674Z,99776.03
2023-04-15T07:14:22.358Z,99770.44
2023-04-15T07:16:51.549Z,99768.63
2023-04-15T07:19:19.946Z,99768.63
2023-04-15T07:21:48.867Z,99770.31
2023-04-15T07:24:19.155Z,99769.19
2023-04-15T07:26:47.789Z,99770.72
2023-04-15T07:29:16.660Z,99770.84
2023-04-15T07:31:45.490Z,99764.56
2023-04-15T07:34:14.079Z,99765.13
2023-04-15T07:36:43.486Z,99762.34
2023-04-15T07:39:12.144Z,99769.31
2023-04-15T07:41:41.344Z,99768.72
2023-04-15T07:44:09.954Z,99765.94
2023-04-15T07:46:38.924Z,99766.25
2023-04-15T07:49:07.688Z,99765.13
2023-04-15T07:51:36.345Z,99771.81
2023-04-15T07:54:04.776Z,99767.19
2023-04-15T07:56:33.653Z,99770.13
2023-04-15T07:59:06.534Z,99767.31
2023-04-15T08:01:35.258Z,99772.38
2023-04-15T08:04:04.071Z,99763.53
2023-04-15T08:06:33.444Z,99766.19
2023-04-15T08:09:02.135Z,99774.03
2023-04-15T08:11:31.703Z,99778.38
2023-04-15T08:14:00.162Z,99778.53
2023-04-15T08:16:29.009Z,99777.00
2023-04-15T08:18:58.032Z,99766.78
2023-04-15T08:21:27.956Z,99765.16
2023-04-15T08:23:56.812Z,99771.41
2023-04-15T08:26:25.553Z,99776.88
2023-04-15T08:28:53.982Z,99778.28
2023-04-15T08:31:22.807Z,99776.88
2023-04-15T08:33:52.944Z,99775.19
2023-04-15T08:36:22.233Z,99771.97
2023-04-15T08:38:50.613Z,99776.16
2023-04-15T08:41:25.813Z,99778.66
2023-04-15T08:44:02.212Z,99776.31
2023-04-15T08:46:37.165Z,99770.81
2023-04-15T08:49:05.897Z,99768.03
2023-04-15T08:51:34.608Z,99770.56
2023-04-15T08:54:03.334Z,99770.72
2023-04-15T08:56:35.224Z,99769.63
2023-04-15T08:59:04.211Z,99771.72
2023-04-15T09:01:33.418Z,99764.88
2023-04-15T09:04:03.070Z,99777.44
2023-04-15T09:06:31.686Z,99776.47
2023-04-15T09:09:00.316Z,99773.94
2023-04-15T09:11:31.688Z,99774.66
2023-04-15T09:14:00.035Z,99773.13
2023-04-15T09:16:28.838Z,99766.28
2023-04-15T09:18:57.383Z,99764.72
2023-04-15T09:21:26.080Z,99760.09
2023-04-15T09:24:01.141Z,99763.88
2023-04-15T09:26:40.752Z,99755.66
2023-04-15T09:29:13.632Z,99757.88
2023-04-15T09:31:43.071Z,99762.34
2023-04-15T09:34:11.830Z,99761.06
2023-04-15T09:36:55.392Z,99762.00
2023-04-15T09:39:23.697Z,99768.16
2023-04-15T09:42:07.100Z,99762.47
2023-04-15T09:44:35.762Z,99766.25
2023-04-15T09:47:04.536Z,99772.38
2023-04-15T09:49:33.207Z,99764.31
2023-04-15T09:52:06.056Z,99762.06
2023-04-15T09:54:36.759Z,99757.47
2023-04-15T09:57:08.079Z,99749.78
2023-04-15T09:59:36.937Z,99749.50
2023-04-15T10:02:07.590Z,99748.09
2023-04-15T10:04:40.088Z,99745.44
2023-04-15T10:07:13.358Z,99749.06
2023-04-15T10:09:41.746Z,99738.00
2023-04-15T10:12:10.592Z,99740.66
2023-04-15T10:14:39.158Z,99744.16
2023-04-15T10:17:07.897Z,99744.72
2023-04-15T10:19:38.016Z,99737.06
2023-04-15T10:22:07.212Z,99742.06
2023-04-15T10:24:35.563Z,99731.56
2023-04-15T10:27:04.885Z,99732.00
2023-04-15T10:29:33.629Z,99739.16
2023-04-15T10:32:02.371Z,99742.50
2023-04-15T10:34:30.674Z,99737.47
2023-04-15T10:37:04.777Z,99733.16
2023-04-15T10:39:41.870Z,99724.31
2023-04-15T10:42:19.607Z,99723.44
2023-04-15T10:44:53.120Z,99727.78
2023-04-15T10:47:22.264Z,99730.72
2023-04-15T10:49:52.914Z,99731.28
2023-04-15T10:52:27.879Z,99727.22
2023-04-15T10:55:11.223Z,99741.34
2023-04-15T10:57:41.090Z,99730.13
2023-04-15T11:00:09.516Z,99720.22
2023-04-15T11:02:48.865Z,99727.94
2023-04-15T11:05:18.287Z,99721.78
2023-04-15T11:07:47.236Z,99725.13
2023-04-15T11:10:18.404Z,99722.47
2023-04-15T11:12:48.386Z,99721.78
2023-04-15T11:15:41.150Z,99715.63
2023-04-15T11:18:24.417Z,99712.53
2023-04-15T11:20:57.788Z,99719.25
2023-04-15T11:23:34.702Z,99713.94
2023-04-15T11:26:10.022Z,99713.63
2023-04-15T11:28:45.102Z,99720.34
2023-04-15T11:31:15.539Z,99714.19
2023-04-15T11:34:01.858Z,99701.50
2023-04-15T11:36:32.243Z,99708.06
2023-04-15T11:39:01.344Z,99710.28
2023-04-15T11:41:30.754Z,99710.97
2023-04-15T11:43:59.559Z,99714.63
2023-04-15T11:46:32.221Z,99714.03
2023-04-15T11:49:01.794Z,99711.38
2023-04-15T11:51:34.535Z,99712.19
2023-04-15T11:54:04.286Z,99705.91
2023-04-15T11:56:33.222Z,99707.72
2023-04-15T11:59:02.296Z,99709.97
2023-04-15T12:01:40.000Z,99713.75
2023-04-15T12:04:13.636Z,99706.06
2023-04-15T12:06:42.329Z,99705.66
2023-04-15T12:09:12.603Z,99704.38
2023-04-15T12:11:57.534Z,99701.31
2023-04-15T12:14:32.944Z,99708.97
2023-04-15T12:17:03.578Z,99698.34
2023-04-15T12:19:36.831Z,99704.19
2023-04-15T12:22:10.265Z,99697.50
2023-04-15T12:24:39.581Z,99698.88
2023-04-15T12:27:16.898Z,99694.25
2023-04-15T12:29:46.025Z,99702.91
2023-04-15T12:32:16.357Z,99702.38
2023-04-15T12:34:53.430Z,99709.91
2023-04-15T12:37:21.997Z,99697.00
2023-04-15T12:39:51.313Z,99704.28
2023-04-15T12:42:19.917Z,99707.94
2023-04-15T12:44:48.692Z,99710.44
2023-04-15T12:47:17.196Z,99714.63
2023-04-15T12:49:45.955Z,99710.81
2023-04-15T12:52:14.340Z,99700.88
2023-04-15T12:54:43.098Z,99707.06
2023-04-15T12:57:11.464Z,99701.56
2023-04-15T12:59:40.214Z,99709.53
2023-04-15T13:02:09.154Z,99701.03
2023-04-15T13:04:38.048Z,99712.50
2023-04-15T13:07:06.518Z,99710.81
2023-04-15T13:09:35.604Z,99713.19
2023-04-15T13:12:05.584Z,99712.59
2023-04-15T13:14:34.366Z,99700.59
2023-04-15T13:17:04.636Z,99690.94
2023-04-15T13:19:33.353Z,99711.00
2023-04-15T13:22:01.978Z,99716.81
2023-04-15T13:24:30.979Z,99710.13
2023-04-15T13:26:59.459Z,99714.06
2023-04-15T13:29:28.192Z,99714.63
2023-04-15T13:31:56.990Z,99717.97
2023-04-15T13:34:25.895Z,99720.47
2023-04-15T13:36:54.359Z,99714.16
2023-04-15T13:39:23.461Z,99722.00
2023-04-15T13:41:51.841Z,99716.00
2023-04-15T13:44:22.016Z,99711.69
2023-04-15T13:46:50.766Z,99713.94
2023-04-15T13:49:19.507Z,99712.41
2023-04-15T13:51:47.912Z,99709.03
2023-04-15T13:54:16.942Z,99711.00
2023-04-15T13:56:45.590Z,99709.31
2023-04-15T13:59:14.266Z,99712.94
2023-04-15T14:01:43.955Z,99707.41
2023-04-15T14:04:12.844Z,99711.06
2023-04-15T14:06:41.374Z,99711.56
2023-04-15T14:09:10.779Z,99706.25
2023-04-15T14:11:39.518Z,99711.28
2023-04-15T14:14:08.273Z,99704.97
2023-04-15T14:16:36.766Z,99714.09
2023-04-15T14:19:06.013Z,99715.31
2023-04-15T14:21:34.654Z,99719.66
2023-04-15T14:24:03.494Z,99720.78
2023-04-15T14:26:31.976Z,99719.53
2023-04-15T14:29:01.383Z,99720.22
2023-04-15T14:31:29.866Z,99717.56
2023-04-15T14:33:58.706Z,99721.38
2023-04-15T14:36:27.333Z,99724.16
2023-04-15T14:38:56.363Z,99717.75
2023-04-15T14:41:24.833Z,99723.88
2023-04-15T14:43:53.615Z,99727.50
2023-04-15T14:46:22.080Z,99720.69
2023-04-15T14:48:51.097Z,99730.03
2023-04-15T14:51:19.588Z,99729.19
2023-04-15T14:53:48.269Z,99738.13
2023-04-15T14:56:16.853Z,99745.97
2023-04-15T14:58:46.030Z,99738.81
2023-04-15T15:01:14.437Z,99739.00
2023-04-15T15:03:43.878Z,99748.47
2023-04-15T15:06:12.470Z,99750.13
2023-04-15T15:08:41.188Z,99754.63
2023-04-15T15:11:09.609Z,99754.63
2023-04-15T15:13:38.562Z,99752.97
2023-04-15T15:16:07.525Z,99762.72
2023-04-15T15:18:36.737Z,99760.75
2023-04-15T15:21:05.337Z,99760.94
2023-04-15T15:23:34.121Z,99760.94
2023-04-15T15:26:02.621Z,99769.88
2023-04-15T15:28:31.391Z,99768.03
2023-04-15T15:30:59.872Z,99771.56
2023-04-15T15:33:30.116Z,99765.09
2023-04-15T15:35:59.459Z,99780.06
2023-04-15T15:38:28.792Z,99770.28
2023-04-15T15:40:57.227Z,99774.44
2023-04-15T15:43:26.066Z,99783.13
2023-04-15T15:45:55.804Z,99778.81
2023-04-15T15:48:24.624Z,99783.13
2023-04-15T15:50:54.718Z,99779.53
2023-04-15T15:53:25.251Z,99777.81
2023-04-15T15:55:54.068Z,99781.47
2023-04-15T15:58:23.562Z,99795.69
2023-04-15T16:00:51.946Z,99796.69
2023-04-15T16:03:20.930Z,99796.84
2023-04-15T16:05:49.873Z,99795.16
2023-04-15T16:08:18.741Z,99791.81
2023-04-15T16:10:47.272Z,99794.47
2023-04-15T16:13:16.058Z,99794.59
2023-04-15T16:15:44.400Z,99799.91
2023-04-15T16:18:13.190Z,99798.13
2023-04-15T16:20:41.832Z,99805.41
2023-04-15T16:23:17.488Z,99800.22
2023-04-15T16:25:46.041Z,99804.69
2023-04-15T16:28:25.801Z,99806.50
2023-04-15T16:30:56.437Z,99816.28
2023-04-15T16:33:25.313Z,99818.13
2023-04-15T16:35:53.773Z,99813.91
2023-04-15T16:38:22.594Z,99830.00
2023-04-15T16:40:51.798Z,99825.81
2023-04-15T16:43:20.521Z,99845.25
2023-04-15T16:45:51.644Z,99844.41
2023-04-15T16:48:21.037Z,99838.56
2023-04-15T16:50:49.560Z,99848.88
2023-04-15T16:53:18.437Z,99844.69
2023-04-15T16:55:46.849Z,99853.63
2023-04-15T16:58:15.745Z,99855.59
2023-04-15T17:00:44.234Z,99863.00
2023-04-15T17:03:13.244Z,99866.50
2023-04-15T17:05:42.743Z,99869.00
2023-04-15T17:08:11.841Z,99867.47
2023-04-15T17:10:40.828Z,99873.47
2023-04-15T17:13:11.164Z,99881.75
2023-04-15T17:15:41.324Z,99879.22
2023-04-15T17:18:10.987Z,99885.38
2023-04-15T17:20:39.747Z,99886.63
2023-04-15T17:23:08.514Z,99910.09
2023-04-15T17:25:37.477Z,99910.78
2023-04-15T17:28:06.779Z,99919.59
2023-04-15T17:30:35.310Z,99917.09
2023-04-15T17:33:55.869Z,99922.41
2023-04-15T17:35:52.675Z,99928.53
2023-04-15T17:38:21.405Z,99933.84
2023-04-15T17:40:49.788Z,99937.34
2023-04-15T17:43:18.677Z,99941.81
2023-04-15T17:45:47.753Z,99947.00
2023-04-15T17:48:17.051Z,99952.31
2023-04-15T17:50:46.185Z,99948.53
2023-04-15T17:53:16.748Z,99959.84
2023-04-15T17:55:45.227Z,99958.19
2023-04-15T17:58:13.965Z,99960.97
2023-04-15T18:00:42.381Z,99959.28
2023-04-15T18:03:11.325Z,99970.59
2023-04-15T18:05:42.416Z,99970.09
2023-04-15T18:08:11.767Z,99983.34
2023-04-15T18:10:40.533Z,99986.16
2023-04-15T18:13:09.238Z,99992.28
2023-04-15T18:15:37.647Z,99989.78
2023-04-15T18:18:06.578Z,99985.47
2023-04-15T18:20:35.165Z,99994.38
2023-04-15T18:23:04.081Z,99995.38
2023-04-15T18:25:34.599Z,99999.69
2023-04-15T18:28:04.049Z,100012.16
2023-04-15T18:30:32.771Z,100002.66
2023-04-15T18:33:01.729Z,100012.16
2023-04-15T18:35:30.534Z,100023.34
2023-04-15T18:37:59.728Z,100018.03
2023-04-15T18:40:28.854Z,100026.69
2023-04-15T18:42:57.670Z,100031.00
2023-04-15T18:45:26.470Z,100035.34
2023-04-15T18:47:55.613Z,100036.19
2023-04-15T18:50:24.228Z,100045.00
2023-04-15T18:52:53.114Z,100045.16
2023-04-15T18:55:21.587Z,100053.81
2023-04-15T18:57:51.567Z,100045.16
2023-04-15T19:00:20.240Z,100056.47
2023-04-15T19:02:49.291Z,100060.94
2023-04-15T19:05:17.998Z,100061.78
2023-04-15T19:07:47.024Z,100067.94
2023-04-15T19:10:15.600Z,100079.41
2023-04-15T19:12:44.628Z,100077.59
2023-04-15T19:15:13.252Z,100082.91
2023-04-15T19:17:42.379Z,100091.84
2023-04-15T19:20:11.322Z,100092.69
2023-04-15T19:22:40.107Z,100099.81
2023-04-15T19:25:09.132Z,100105.97
2023-04-15T19:27:41.115Z,100107.66
2023-04-15T19:30:09.937Z,100114.78
2023-04-15T19:32:38.810Z,100113.94
2023-04-15T19:35:09.979Z,100120.09
2023-04-15T19:37:40.004Z,100125.41
2023-04-15T19:40:09.721Z,100122.75
2023-04-15T19:42:38.523Z,100129.16
2023-04-15T19:45:07.642Z,100126.66
2023-04-15T19:47:36.408Z,100127.75
2023-04-15T19:50:07.555Z,100129.47
2023-04-15T19:52:36.233Z,100134.91
2023-04-15T19:55:05.197Z,100141.19
2023-04-15T19:57:34.393Z,100138.53
2023-04-15T20:00:03.126Z,100139.50
2023-04-15T20:02:34.620Z,100138.69
2023-04-15T20:05:03.272Z,100143.13
2023-04-15T20:07:31.896Z,100140.47
2023-04-15T20:10:00.351Z,100146.78
2023-04-15T20:12:49.808Z,100143.13
2023-04-15T20:15:18.022Z,100152.94
2023-04-15T20:17:48.117Z,100146.06
2023-04-15T20:20:16.650Z,100159.19
2023-04-15T20:22:45.536Z,100155.84
2023-04-15T20:25:13.860Z,100154.75
2023-04-15T20:27:42.581Z,100158.38
2023-04-15T20:30:11.396Z,100156.72
2023-04-15T20:32:40.182Z,100159.19
2023-04-15T20:35:08.834Z,100164.66
2023-04-15T20:37:38.191Z,100162.00
2023-04-15T20:40:07.478Z,100168.28
2023-04-15T20:42:36.243Z,100167.31
2023-04-15T20:45:07.430Z,100177.94
2023-04-15T20:47:36.153Z,100180.59
2023-04-15T20:50:04.902Z,100174.44
2023-04-15T20:52:33.635Z,100169.28
2023-04-15T20:55:02.062Z,100176.25
2023-04-15T20:57:31.012Z,100178.91
2023-04-15T20:59:59.353Z,100178.91
2023-04-15T21:02:28.244Z,100181.56
2023-04-15T21:04:59.363Z,100191.34
2023-04-15T21:07:28.039Z,100191.50
2023-04-15T21:09:56.484Z,100186.88
2023-04-15T21:12:25.093Z,100192.31
2023-04-15T21:14:53.404Z,100188.84
2023-04-15T21:17:22.458Z,100198.63
2023-04-15T21:19:51.005Z,100209.13
2023-04-15T21:22:19.601Z,100220.56
2023-04-15T21:24:47.983Z,100210.09
2023-04-15T21:27:16.728Z,100213.56
2023-04-15T21:29:45.280Z,100214.56
2023-04-15T21:32:14.054Z,100216.38
2023-04-15T21:34:42.547Z,100223.38
2023-04-15T21:37:11.293Z,100229.66
2023-04-15T21:39:39.596Z,100240.28
2023-04-15T21:42:08.272Z,100238.59
2023-04-15T21:44:36.606Z,100238.59
2023-04-15T21:47:05.508Z,100250.03
2023-04-15T21:49:34.207Z,100250.91
2023-04-15T21:52:04.947Z,100250.91
2023-04-15T21:54:33.613Z,100248.38
2023-04-15T21:57:03.819Z,100249.22
2023-04-15T21:59:32.236Z,100249.22
2023-04-15T22:02:01.519Z,100244.72
2023-04-15T22:04:30.117Z,100247.56
2023-04-15T22:07:01.781Z,100241.25
2023-04-15T22:09:30.374Z,100252.00
2023-04-15T22:12:02.074Z,100246.56
2023-04-15T22:14:30.826Z,100238.84
2023-04-15T22:16:59.639Z,100251.03
2023-04-15T22:19:28.078Z,100249.22
2023-04-15T22:21:56.815Z,100245.84
2023-04-15T22:24:32.461Z,100256.47
2023-04-15T22:27:08.854Z,100255.53
2023-04-15T22:29:37.284Z,100254.78
2023-04-15T22:32:07.032Z,100260.81
2023-04-15T22:34:35.514Z,100259.13
2023-04-15T22:37:04.722Z,100267.09
2023-04-15T22:39:33.055Z,100265.41
2023-04-15T22:42:02.257Z,100270.72
2023-04-15T22:44:30.621Z,100267.22
2023-04-15T22:46:59.142Z,100270.72
2023-04-15T22:49:27.562Z,100271.59
2023-04-15T22:51:56.503Z,100270.72
2023-04-15T22:54:24.912Z,100269.06
2023-04-15T22:56:53.840Z,100269.88
2023-04-15T22:59:22.091Z,100273.38
2023-04-15T23:01:51.060Z,100269.88
2023-04-15T23:04:24.935Z,100275.19
2023-04-15T23:06:55.987Z,100270.88
2023-04-15T23:09:24.342Z,100275.19
2023-04-15T23:11:52.972Z,100271.00
2023-04-15T23:14:21.384Z,100274.38
2023-04-15T23:16:50.141Z,100272.66
2023-04-15T23:19:18.450Z,100274.38
2023-04-15T23:21:47.521Z,100265.69
2023-04-15T23:24:16.285Z,100257.00
2023-04-15T23:26:45.094Z,100265.69
2023-04-15T23:29:13.362Z,100270.88
2023-04-15T23:31:42.035Z,100271.00
2023-04-15T23:34:10.473Z,100266.66
2023-04-15T23:36:39.204Z,100269.31
2023-04-15T23:39:07.726Z,100271.00
2023-04-15T23:41:36.841Z,100280.78
2023-04-15T23:44:05.472Z,100288.75
2023-04-15T23:46:34.262Z,100289.72
2023-04-15T23:49:02.523Z,100291.41
2023-04-15T23:51:31.128Z,100290.53
2023-04-15T23:53:59.552Z,100295.03
2023-04-15T23:56:28.211Z,100285.22
2023-04-15T23:58:56.445Z,100284.53
